sensor_id;sensor_type;location;lat;lon;timestamp;P1;durP1;ratioP1;P2;durP2;ratioP2
65998;SDS011;52766;56.008;37.440;2023-08-17T00:02:47;17.08;;;9.30;;
65998;SDS011;52766;56.008;37.440;2023-08-17T00:05:18;17.55;;;8.70;;
65998;SDS011;52766;56.008;37.440;2023-08-17T00:07:45;15.50;;;8.40;;
65998;SDS011;52766;56.008;37.440;2023-08-17T00:10:14;15.18;;;7.97;;
65998;SDS011;52766;56.008;37.440;2023-08-17T00:12:40;22.25;;;9.70;;
65998;SDS011;52766;56.008;37.440;2023-08-17T00:15:06;19.20;;;10.35;;
65998;SDS011;52766;56.008;37.440;2023-08-17T00:17:33;22.00;;;12.02;;
65998;SDS011;52766;56.008;37.440;2023-08-17T00:19:59;19.42;;;9.23;;
65998;SDS011;52766;56.008;37.440;2023-08-17T00:22:25;21.60;;;9.45;;
65998;SDS011;52766;56.008;37.440;2023-08-17T00:24:53;13.20;;;8.10;;
65998;SDS011;52766;56.008;37.440;2023-08-17T00:27:20;17.38;;;9.35;;
65998;SDS011;52766;56.008;37.440;2023-08-17T00:29:45;16.63;;;9.25;;
65998;SDS011;52766;56.008;37.440;2023-08-17T00:32:12;15.55;;;8.82;;
65998;SDS011;52766;56.008;37.440;2023-08-17T00:34:38;19.77;;;8.52;;
65998;SDS011;52766;56.008;37.440;2023-08-17T00:37:04;14.55;;;8.10;;
65998;SDS011;52766;56.008;37.440;2023-08-17T00:39:30;14.45;;;8.05;;
65998;SDS011;52766;56.008;37.440;2023-08-17T00:41:58;13.43;;;8.23;;
65998;SDS011;52766;56.008;37.440;2023-08-17T00:44:24;18.95;;;8.18;;
65998;SDS011;52766;56.008;37.440;2023-08-17T00:46:50;15.77;;;8.10;;
65998;SDS011;52766;56.008;37.440;2023-08-17T00:49:17;20.40;;;9.82;;
65998;SDS011;52766;56.008;37.440;2023-08-17T00:51:44;36.40;;;16.92;;
65998;SDS011;52766;56.008;37.440;2023-08-17T00:54:10;39.67;;;21.80;;
65998;SDS011;52766;56.008;37.440;2023-08-17T00:56:36;24.88;;;10.68;;
65998;SDS011;52766;56.008;37.440;2023-08-17T00:59:03;23.50;;;9.45;;
65998;SDS011;52766;56.008;37.440;2023-08-17T01:01:31;24.17;;;10.35;;
65998;SDS011;52766;56.008;37.440;2023-08-17T01:03:58;22.88;;;10.85;;
65998;SDS011;52766;56.008;37.440;2023-08-17T01:06:24;26.20;;;10.32;;
65998;SDS011;52766;56.008;37.440;2023-08-17T01:08:50;23.02;;;10.98;;
65998;SDS011;52766;56.008;37.440;2023-08-17T01:16:40;20.42;;;10.38;;
65998;SDS011;52766;56.008;37.440;2023-08-17T01:19:10;21.67;;;9.32;;
65998;SDS011;52766;56.008;37.440;2023-08-17T01:21:41;21.20;;;9.50;;
65998;SDS011;52766;56.008;37.440;2023-08-17T01:24:11;20.98;;;9.25;;
65998;SDS011;52766;56.008;37.440;2023-08-17T01:26:37;21.67;;;9.65;;
65998;SDS011;52766;56.008;37.440;2023-08-17T01:29:06;27.88;;;11.35;;
65998;SDS011;52766;56.008;37.440;2023-08-17T01:31:39;26.17;;;11.05;;
65998;SDS011;52766;56.008;37.440;2023-08-17T01:34:10;22.80;;;9.38;;
65998;SDS011;52766;56.008;37.440;2023-08-17T01:36:43;20.98;;;8.48;;
65998;SDS011;52766;56.008;37.440;2023-08-17T01:39:36;22.48;;;10.25;;
65998;SDS011;52766;56.008;37.440;2023-08-17T01:42:04;18.15;;;8.55;;
65998;SDS011;52766;56.008;37.440;2023-08-17T01:44:30;22.02;;;10.43;;
65998;SDS011;52766;56.008;37.440;2023-08-17T01:46:57;19.58;;;8.73;;
65998;SDS011;52766;56.008;37.440;2023-08-17T01:49:24;23.65;;;9.45;;
65998;SDS011;52766;56.008;37.440;2023-08-17T01:51:52;13.65;;;7.10;;
65998;SDS011;52766;56.008;37.440;2023-08-17T01:54:18;20.35;;;8.48;;
65998;SDS011;52766;56.008;37.440;2023-08-17T01:56:44;19.02;;;8.80;;
65998;SDS011;52766;56.008;37.440;2023-08-17T01:59:13;20.90;;;9.02;;
65998;SDS011;52766;56.008;37.440;2023-08-17T02:01:39;16.30;;;9.10;;
65998;SDS011;52766;56.008;37.440;2023-08-17T02:04:05;17.92;;;7.85;;
65998;SDS011;52766;56.008;37.440;2023-08-17T02:06:31;18.58;;;8.20;;
65998;SDS011;52766;56.008;37.440;2023-08-17T02:09:00;16.60;;;8.55;;
65998;SDS011;52766;56.008;37.440;2023-08-17T02:11:26;16.15;;;7.45;;
65998;SDS011;52766;56.008;37.440;2023-08-17T02:13:54;18.02;;;7.47;;
65998;SDS011;52766;56.008;37.440;2023-08-17T02:16:20;20.80;;;8.85;;
65998;SDS011;52766;56.008;37.440;2023-08-17T02:18:46;21.30;;;8.88;;
65998;SDS011;52766;56.008;37.440;2023-08-17T02:21:12;14.68;;;8.18;;
65998;SDS011;52766;56.008;37.440;2023-08-17T02:23:39;20.45;;;8.27;;
65998;SDS011;52766;56.008;37.440;2023-08-17T02:26:05;18.20;;;8.27;;
65998;SDS011;52766;56.008;37.440;2023-08-17T02:28:30;23.95;;;12.60;;
65998;SDS011;52766;56.008;37.440;2023-08-17T02:30:57;17.15;;;8.75;;
65998;SDS011;52766;56.008;37.440;2023-08-17T02:33:27;18.92;;;8.27;;
65998;SDS011;52766;56.008;37.440;2023-08-17T02:35:53;16.98;;;7.70;;
65998;SDS011;52766;56.008;37.440;2023-08-17T02:38:21;15.15;;;7.55;;
65998;SDS011;52766;56.008;37.440;2023-08-17T02:40:48;13.55;;;7.10;;
65998;SDS011;52766;56.008;37.440;2023-08-17T02:43:15;16.85;;;7.63;;
65998;SDS011;52766;56.008;37.440;2023-08-17T02:45:42;15.88;;;8.98;;
65998;SDS011;52766;56.008;37.440;2023-08-17T02:48:08;15.43;;;8.02;;
65998;SDS011;52766;56.008;37.440;2023-08-17T02:50:37;23.15;;;9.15;;
65998;SDS011;52766;56.008;37.440;2023-08-17T02:53:03;12.70;;;7.43;;
65998;SDS011;52766;56.008;37.440;2023-08-17T02:55:34;9.77;;;6.85;;
65998;SDS011;52766;56.008;37.440;2023-08-17T02:58:03;18.23;;;7.25;;
65998;SDS011;52766;56.008;37.440;2023-08-17T03:00:29;18.25;;;10.57;;
65998;SDS011;52766;56.008;37.440;2023-08-17T03:02:57;17.30;;;12.10;;
65998;SDS011;52766;56.008;37.440;2023-08-17T03:05:24;18.33;;;10.25;;
65998;SDS011;52766;56.008;37.440;2023-08-17T03:07:54;19.75;;;8.95;;
65998;SDS011;52766;56.008;37.440;2023-08-17T03:10:24;18.90;;;8.15;;
65998;SDS011;52766;56.008;37.440;2023-08-17T03:12:52;18.58;;;7.65;;
65998;SDS011;52766;56.008;37.440;2023-08-17T03:15:19;17.88;;;8.07;;
65998;SDS011;52766;56.008;37.440;2023-08-17T03:17:45;21.13;;;8.80;;
65998;SDS011;52766;56.008;37.440;2023-08-17T03:20:13;20.65;;;9.05;;
65998;SDS011;52766;56.008;37.440;2023-08-17T03:22:40;17.58;;;8.95;;
65998;SDS011;52766;56.008;37.440;2023-08-17T03:25:07;21.98;;;8.57;;
65998;SDS011;52766;56.008;37.440;2023-08-17T03:27:35;25.20;;;8.93;;
65998;SDS011;52766;56.008;37.440;2023-08-17T03:30:15;21.35;;;10.55;;
65998;SDS011;52766;56.008;37.440;2023-08-17T03:32:40;17.10;;;8.23;;
65998;SDS011;52766;56.008;37.440;2023-08-17T03:35:10;16.45;;;8.95;;
65998;SDS011;52766;56.008;37.440;2023-08-17T03:37:37;19.17;;;8.40;;
65998;SDS011;52766;56.008;37.440;2023-08-17T03:40:04;20.05;;;8.60;;
65998;SDS011;52766;56.008;37.440;2023-08-17T03:42:34;19.45;;;8.77;;
65998;SDS011;52766;56.008;37.440;2023-08-17T03:45:04;20.60;;;9.45;;
65998;SDS011;52766;56.008;37.440;2023-08-17T03:47:32;23.90;;;8.45;;
65998;SDS011;52766;56.008;37.440;2023-08-17T03:50:00;17.80;;;8.70;;
65998;SDS011;52766;56.008;37.440;2023-08-17T03:52:26;13.50;;;8.32;;
65998;SDS011;52766;56.008;37.440;2023-08-17T03:54:53;17.10;;;9.32;;
65998;SDS011;52766;56.008;37.440;2023-08-17T03:57:20;19.63;;;9.95;;
65998;SDS011;52766;56.008;37.440;2023-08-17T03:59:50;18.70;;;8.82;;
65998;SDS011;52766;56.008;37.440;2023-08-17T04:02:23;15.32;;;8.35;;
65998;SDS011;52766;56.008;37.440;2023-08-17T04:04:49;18.55;;;9.23;;
65998;SDS011;52766;56.008;37.440;2023-08-17T04:07:21;18.02;;;8.90;;
65998;SDS011;52766;56.008;37.440;2023-08-17T04:09:48;19.77;;;9.70;;
65998;SDS011;52766;56.008;37.440;2023-08-17T04:12:20;18.65;;;8.40;;
65998;SDS011;52766;56.008;37.440;2023-08-17T04:14:52;20.25;;;9.52;;
65998;SDS011;52766;56.008;37.440;2023-08-17T04:17:21;18.35;;;8.90;;
65998;SDS011;52766;56.008;37.440;2023-08-17T04:19:58;18.30;;;8.85;;
65998;SDS011;52766;56.008;37.440;2023-08-17T04:22:31;20.13;;;9.68;;
65998;SDS011;52766;56.008;37.440;2023-08-17T04:24:57;18.10;;;9.18;;
65998;SDS011;52766;56.008;37.440;2023-08-17T04:27:25;19.92;;;11.65;;
65998;SDS011;52766;56.008;37.440;2023-08-17T04:29:52;19.92;;;9.48;;
65998;SDS011;52766;56.008;37.440;2023-08-17T04:32:30;24.77;;;13.85;;
65998;SDS011;52766;56.008;37.440;2023-08-17T04:34:59;17.77;;;9.52;;
65998;SDS011;52766;56.008;37.440;2023-08-17T04:37:36;22.00;;;9.10;;
65998;SDS011;52766;56.008;37.440;2023-08-17T04:40:08;22.20;;;8.45;;
65998;SDS011;52766;56.008;37.440;2023-08-17T04:42:52;14.70;;;7.50;;
65998;SDS011;52766;56.008;37.440;2023-08-17T04:45:25;14.43;;;8.77;;
65998;SDS011;52766;56.008;37.440;2023-08-17T04:47:58;16.08;;;9.00;;
65998;SDS011;52766;56.008;37.440;2023-08-17T04:54:48;16.13;;;8.35;;
65998;SDS011;52766;56.008;37.440;2023-08-17T04:57:47;19.00;;;8.52;;
65998;SDS011;52766;56.008;37.440;2023-08-17T05:00:39;17.52;;;7.40;;
65998;SDS011;52766;56.008;37.440;2023-08-17T05:08:24;13.15;;;5.65;;
65998;SDS011;52766;56.008;37.440;2023-08-17T05:24:14;9.93;;;3.92;;
65998;SDS011;52766;56.008;37.440;2023-08-17T05:27:11;8.75;;;3.20;;
65998;SDS011;52766;56.008;37.440;2023-08-17T05:30:11;9.77;;;3.75;;
65998;SDS011;52766;56.008;37.440;2023-08-17T05:32:43;7.00;;;3.47;;
65998;SDS011;52766;56.008;37.440;2023-08-17T05:35:12;8.73;;;3.97;;
65998;SDS011;52766;56.008;37.440;2023-08-17T05:37:46;8.80;;;3.95;;
65998;SDS011;52766;56.008;37.440;2023-08-17T05:40:15;7.90;;;4.07;;
65998;SDS011;52766;56.008;37.440;2023-08-17T05:42:44;7.97;;;3.97;;
65998;SDS011;52766;56.008;37.440;2023-08-17T05:48:20;12.02;;;3.70;;
65998;SDS011;52766;56.008;37.440;2023-08-17T05:50:52;9.93;;;5.28;;
65998;SDS011;52766;56.008;37.440;2023-08-17T05:53:21;9.63;;;4.47;;
65998;SDS011;52766;56.008;37.440;2023-08-17T05:55:53;11.00;;;5.03;;
65998;SDS011;52766;56.008;37.440;2023-08-17T05:58:22;11.90;;;4.35;;
65998;SDS011;52766;56.008;37.440;2023-08-17T06:00:50;9.13;;;3.97;;
65998;SDS011;52766;56.008;37.440;2023-08-17T06:12:10;9.30;;;3.40;;
65998;SDS011;52766;56.008;37.440;2023-08-17T06:14:36;7.80;;;3.60;;
65998;SDS011;52766;56.008;37.440;2023-08-17T06:25:07;7.47;;;3.40;;
65998;SDS011;52766;56.008;37.440;2023-08-17T06:27:58;9.55;;;3.75;;
65998;SDS011;52766;56.008;37.440;2023-08-17T06:30:24;6.68;;;3.00;;
65998;SDS011;52766;56.008;37.440;2023-08-17T06:32:50;8.75;;;3.38;;
65998;SDS011;52766;56.008;37.440;2023-08-17T06:35:17;5.75;;;3.40;;
65998;SDS011;52766;56.008;37.440;2023-08-17T06:40:31;4.28;;;2.80;;
65998;SDS011;52766;56.008;37.440;2023-08-17T06:42:57;5.32;;;3.22;;
65998;SDS011;52766;56.008;37.440;2023-08-17T06:45:27;4.85;;;2.55;;
65998;SDS011;52766;56.008;37.440;2023-08-17T06:47:55;4.50;;;2.30;;
65998;SDS011;52766;56.008;37.440;2023-08-17T06:50:21;3.50;;;2.50;;
65998;SDS011;52766;56.008;37.440;2023-08-17T06:52:56;5.30;;;2.80;;
65998;SDS011;52766;56.008;37.440;2023-08-17T06:55:51;5.18;;;2.72;;
65998;SDS011;52766;56.008;37.440;2023-08-17T06:58:32;4.00;;;2.10;;
65998;SDS011;52766;56.008;37.440;2023-08-17T07:01:22;4.40;;;2.20;;
65998;SDS011;52766;56.008;37.440;2023-08-17T07:08:32;5.55;;;2.95;;
65998;SDS011;52766;56.008;37.440;2023-08-17T07:11:01;6.75;;;3.15;;
65998;SDS011;52766;56.008;37.440;2023-08-17T07:13:30;9.93;;;3.28;;
65998;SDS011;52766;56.008;37.440;2023-08-17T07:16:03;4.68;;;2.58;;
65998;SDS011;52766;56.008;37.440;2023-08-17T07:18:35;5.28;;;3.28;;
65998;SDS011;52766;56.008;37.440;2023-08-17T07:21:01;6.43;;;3.50;;
65998;SDS011;52766;56.008;37.440;2023-08-17T07:23:28;6.28;;;3.00;;
65998;SDS011;52766;56.008;37.440;2023-08-17T07:25:55;7.25;;;3.17;;
65998;SDS011;52766;56.008;37.440;2023-08-17T07:28:21;11.00;;;3.45;;
65998;SDS011;52766;56.008;37.440;2023-08-17T07:30:53;7.00;;;3.90;;
65998;SDS011;52766;56.008;37.440;2023-08-17T07:33:27;5.85;;;3.15;;
65998;SDS011;52766;56.008;37.440;2023-08-17T07:36:04;7.00;;;3.47;;
65998;SDS011;52766;56.008;37.440;2023-08-17T07:38:43;8.85;;;3.67;;
65998;SDS011;52766;56.008;37.440;2023-08-17T07:41:13;6.32;;;3.17;;
65998;SDS011;52766;56.008;37.440;2023-08-17T07:43:49;7.97;;;3.50;;
65998;SDS011;52766;56.008;37.440;2023-08-17T07:51:07;6.90;;;3.40;;
65998;SDS011;52766;56.008;37.440;2023-08-17T07:54:55;4.10;;;2.72;;
65998;SDS011;52766;56.008;37.440;2023-08-17T08:09:51;7.03;;;3.28;;
65998;SDS011;52766;56.008;37.440;2023-08-17T08:20:53;7.22;;;2.88;;
65998;SDS011;52766;56.008;37.440;2023-08-17T08:35:42;5.70;;;3.33;;
65998;SDS011;52766;56.008;37.440;2023-08-17T08:38:14;6.00;;;2.85;;
65998;SDS011;52766;56.008;37.440;2023-08-17T08:40:41;5.03;;;3.40;;
65998;SDS011;52766;56.008;37.440;2023-08-17T08:43:08;7.05;;;3.28;;
65998;SDS011;52766;56.008;37.440;2023-08-17T08:45:38;5.90;;;2.95;;
65998;SDS011;52766;56.008;37.440;2023-08-17T08:52:44;8.20;;;3.25;;
65998;SDS011;52766;56.008;37.440;2023-08-17T08:55:17;9.27;;;5.85;;
65998;SDS011;52766;56.008;37.440;2023-08-17T08:57:47;8.20;;;3.13;;
65998;SDS011;52766;56.008;37.440;2023-08-17T09:00:16;7.05;;;4.30;;
65998;SDS011;52766;56.008;37.440;2023-08-17T09:02:43;7.53;;;2.80;;
65998;SDS011;52766;56.008;37.440;2023-08-17T09:05:12;5.93;;;2.92;;
65998;SDS011;52766;56.008;37.440;2023-08-17T09:07:38;6.07;;;3.10;;
65998;SDS011;52766;56.008;37.440;2023-08-17T09:10:05;5.38;;;2.95;;
65998;SDS011;52766;56.008;37.440;2023-08-17T09:12:31;5.25;;;2.55;;
65998;SDS011;52766;56.008;37.440;2023-08-17T09:14:58;6.75;;;3.13;;
65998;SDS011;52766;56.008;37.440;2023-08-17T09:17:31;4.25;;;2.50;;
65998;SDS011;52766;56.008;37.440;2023-08-17T09:20:09;4.55;;;2.85;;
65998;SDS011;52766;56.008;37.440;2023-08-17T09:22:57;7.35;;;3.22;;
65998;SDS011;52766;56.008;37.440;2023-08-17T09:25:54;7.30;;;3.00;;
65998;SDS011;52766;56.008;37.440;2023-08-17T09:28:30;6.38;;;2.55;;
65998;SDS011;52766;56.008;37.440;2023-08-17T09:31:02;6.45;;;3.17;;
65998;SDS011;52766;56.008;37.440;2023-08-17T09:33:37;6.88;;;3.08;;
65998;SDS011;52766;56.008;37.440;2023-08-17T09:36:03;4.95;;;3.13;;
65998;SDS011;52766;56.008;37.440;2023-08-17T09:38:38;6.50;;;3.35;;
65998;SDS011;52766;56.008;37.440;2023-08-17T09:45:32;8.85;;;3.50;;
65998;SDS011;52766;56.008;37.440;2023-08-17T09:51:19;6.95;;;3.30;;
65998;SDS011;52766;56.008;37.440;2023-08-17T09:53:51;5.78;;;3.15;;
65998;SDS011;52766;56.008;37.440;2023-08-17T09:56:44;7.30;;;4.03;;
65998;SDS011;52766;56.008;37.440;2023-08-17T10:05:24;6.82;;;3.72;;
65998;SDS011;52766;56.008;37.440;2023-08-17T10:07:51;7.45;;;3.03;;
65998;SDS011;52766;56.008;37.440;2023-08-17T10:10:21;6.35;;;3.40;;
65998;SDS011;52766;56.008;37.440;2023-08-17T10:12:53;5.75;;;3.20;;
65998;SDS011;52766;56.008;37.440;2023-08-17T10:15:51;5.32;;;3.10;;
65998;SDS011;52766;56.008;37.440;2023-08-17T11:15:43;6.53;;;3.13;;
65998;SDS011;52766;56.008;37.440;2023-08-17T11:18:27;6.80;;;3.22;;
65998;SDS011;52766;56.008;37.440;2023-08-17T11:20:56;5.47;;;3.60;;
65998;SDS011;52766;56.008;37.440;2023-08-17T11:32:16;6.70;;;3.95;;
65998;SDS011;52766;56.008;37.440;2023-08-17T11:37:49;7.78;;;4.10;;
65998;SDS011;52766;56.008;37.440;2023-08-17T11:40:42;5.90;;;3.25;;
65998;SDS011;52766;56.008;37.440;2023-08-17T11:43:13;4.85;;;2.97;;
65998;SDS011;52766;56.008;37.440;2023-08-17T11:58:41;7.90;;;4.03;;
65998;SDS011;52766;56.008;37.440;2023-08-17T12:01:15;4.40;;;3.10;;
65998;SDS011;52766;56.008;37.440;2023-08-17T12:03:48;5.72;;;3.13;;
65998;SDS011;52766;56.008;37.440;2023-08-17T12:06:16;6.57;;;3.60;;
65998;SDS011;52766;56.008;37.440;2023-08-17T12:13:03;5.57;;;3.40;;
65998;SDS011;52766;56.008;37.440;2023-08-17T12:19:58;6.00;;;3.33;;
65998;SDS011;52766;56.008;37.440;2023-08-17T12:22:34;5.47;;;3.20;;
65998;SDS011;52766;56.008;37.440;2023-08-17T12:30:59;9.45;;;4.07;;
65998;SDS011;52766;56.008;37.440;2023-08-17T12:36:53;7.18;;;3.45;;
65998;SDS011;52766;56.008;37.440;2023-08-17T12:39:33;4.68;;;3.22;;
65998;SDS011;52766;56.008;37.440;2023-08-17T12:42:26;5.82;;;3.60;;
65998;SDS011;52766;56.008;37.440;2023-08-17T12:44:56;7.38;;;3.20;;
65998;SDS011;52766;56.008;37.440;2023-08-17T12:47:32;5.80;;;3.28;;
65998;SDS011;52766;56.008;37.440;2023-08-17T12:50:19;7.75;;;3.40;;
65998;SDS011;52766;56.008;37.440;2023-08-17T12:55:50;7.85;;;3.85;;
65998;SDS011;52766;56.008;37.440;2023-08-17T12:58:22;6.97;;;3.35;;
65998;SDS011;52766;56.008;37.440;2023-08-17T13:01:30;4.93;;;3.30;;
65998;SDS011;52766;56.008;37.440;2023-08-17T13:04:12;5.57;;;3.55;;
65998;SDS011;52766;56.008;37.440;2023-08-17T13:06:44;5.15;;;3.22;;
65998;SDS011;52766;56.008;37.440;2023-08-17T13:09:16;6.60;;;3.53;;
65998;SDS011;52766;56.008;37.440;2023-08-17T13:19:51;7.13;;;3.35;;
65998;SDS011;52766;56.008;37.440;2023-08-17T13:22:27;5.18;;;3.22;;
65998;SDS011;52766;56.008;37.440;2023-08-17T13:28:06;7.45;;;3.72;;
65998;SDS011;52766;56.008;37.440;2023-08-17T13:30:41;8.23;;;3.53;;
65998;SDS011;52766;56.008;37.440;2023-08-17T13:33:28;7.40;;;3.50;;
65998;SDS011;52766;56.008;37.440;2023-08-17T13:36:53;7.22;;;3.40;;
65998;SDS011;52766;56.008;37.440;2023-08-17T13:56:24;5.03;;;3.20;;
65998;SDS011;52766;56.008;37.440;2023-08-17T13:59:05;6.70;;;3.60;;
65998;SDS011;52766;56.008;37.440;2023-08-17T14:05:59;5.93;;;4.22;;
65998;SDS011;52766;56.008;37.440;2023-08-17T14:16:36;5.18;;;3.60;;
65998;SDS011;52766;56.008;37.440;2023-08-17T14:27:03;7.25;;;4.07;;
65998;SDS011;52766;56.008;37.440;2023-08-17T16:46:56;11.73;;;7.00;;
65998;SDS011;52766;56.008;37.440;2023-08-17T16:49:58;10.30;;;5.63;;
65998;SDS011;52766;56.008;37.440;2023-08-17T18:18:18;33.92;;;14.32;;
65998;SDS011;52766;56.008;37.440;2023-08-17T19:28:17;17.65;;;8.40;;
65998;SDS011;52766;56.008;37.440;2023-08-17T19:45:47;26.50;;;13.90;;
65998;SDS011;52766;56.008;37.440;2023-08-17T20:24:09;14.80;;;8.63;;
65998;SDS011;52766;56.008;37.440;2023-08-17T20:27:45;19.23;;;10.52;;
65998;SDS011;52766;56.008;37.440;2023-08-17T20:39:16;22.92;;;9.40;;
65998;SDS011;52766;56.008;37.440;2023-08-17T20:46:47;20.85;;;9.88;;
65998;SDS011;52766;56.008;37.440;2023-08-17T20:54:33;23.77;;;11.77;;
65998;SDS011;52766;56.008;37.440;2023-08-17T20:57:01;22.20;;;11.50;;
65998;SDS011;52766;56.008;37.440;2023-08-17T20:59:40;19.45;;;10.80;;
65998;SDS011;52766;56.008;37.440;2023-08-17T21:17:04;19.13;;;10.13;;
65998;SDS011;52766;56.008;37.440;2023-08-17T21:20:14;20.63;;;9.88;;
65998;SDS011;52766;56.008;37.440;2023-08-17T21:29:54;17.02;;;9.23;;
65998;SDS011;52766;56.008;37.440;2023-08-17T21:32:31;16.27;;;9.70;;
65998;SDS011;52766;56.008;37.440;2023-08-17T21:35:25;17.25;;;9.23;;
65998;SDS011;52766;56.008;37.440;2023-08-17T21:41:16;17.80;;;9.05;;
65998;SDS011;52766;56.008;37.440;2023-08-17T21:43:58;17.90;;;9.73;;
65998;SDS011;52766;56.008;37.440;2023-08-17T21:49:15;20.70;;;9.82;;
65998;SDS011;52766;56.008;37.440;2023-08-17T21:51:51;16.77;;;9.52;;
65998;SDS011;52766;56.008;37.440;2023-08-17T21:57:31;17.77;;;11.35;;
65998;SDS011;52766;56.008;37.440;2023-08-17T22:00:19;17.05;;;10.00;;
65998;SDS011;52766;56.008;37.440;2023-08-17T22:06:03;20.33;;;11.25;;
65998;SDS011;52766;56.008;37.440;2023-08-17T22:08:37;20.73;;;10.88;;
65998;SDS011;52766;56.008;37.440;2023-08-17T22:11:03;18.02;;;9.93;;
65998;SDS011;52766;56.008;37.440;2023-08-17T22:13:31;23.35;;;10.18;;
65998;SDS011;52766;56.008;37.440;2023-08-17T22:16:11;18.15;;;10.25;;
65998;SDS011;52766;56.008;37.440;2023-08-17T22:18:44;21.70;;;10.55;;
65998;SDS011;52766;56.008;37.440;2023-08-17T22:21:21;17.95;;;9.65;;
65998;SDS011;52766;56.008;37.440;2023-08-17T22:28:03;21.75;;;10.20;;
65998;SDS011;52766;56.008;37.440;2023-08-17T22:30:32;16.88;;;9.68;;
65998;SDS011;52766;56.008;37.440;2023-08-17T22:32:58;19.27;;;10.13;;
65998;SDS011;52766;56.008;37.440;2023-08-17T22:35:27;18.58;;;10.05;;
65998;SDS011;52766;56.008;37.440;2023-08-17T22:37:55;23.00;;;9.88;;
65998;SDS011;52766;56.008;37.440;2023-08-17T22:40:22;23.88;;;11.15;;
65998;SDS011;52766;56.008;37.440;2023-08-17T22:42:48;20.58;;;11.70;;
65998;SDS011;52766;56.008;37.440;2023-08-17T22:45:15;19.77;;;9.73;;
65998;SDS011;52766;56.008;37.440;2023-08-17T22:47:43;19.42;;;12.65;;
65998;SDS011;52766;56.008;37.440;2023-08-17T22:50:09;18.70;;;11.35;;
65998;SDS011;52766;56.008;37.440;2023-08-17T22:52:36;22.20;;;11.77;;
65998;SDS011;52766;56.008;37.440;2023-08-17T22:55:03;17.73;;;11.02;;
65998;SDS011;52766;56.008;37.440;2023-08-17T22:57:30;18.13;;;9.40;;
65998;SDS011;52766;56.008;37.440;2023-08-17T22:59:59;18.48;;;10.50;;
65998;SDS011;52766;56.008;37.440;2023-08-17T23:02:26;25.33;;;10.77;;
65998;SDS011;52766;56.008;37.440;2023-08-17T23:04:52;20.25;;;9.60;;
65998;SDS011;52766;56.008;37.440;2023-08-17T23:07:18;21.80;;;10.43;;
65998;SDS011;52766;56.008;37.440;2023-08-17T23:09:44;16.00;;;10.00;;
65998;SDS011;52766;56.008;37.440;2023-08-17T23:12:14;14.82;;;9.32;;
65998;SDS011;52766;56.008;37.440;2023-08-17T23:14:40;17.45;;;8.70;;
65998;SDS011;52766;56.008;37.440;2023-08-17T23:17:06;21.48;;;9.45;;
65998;SDS011;52766;56.008;37.440;2023-08-17T23:19:32;15.57;;;9.35;;
65998;SDS011;52766;56.008;37.440;2023-08-17T23:22:00;13.82;;;8.98;;
65998;SDS011;52766;56.008;37.440;2023-08-17T23:24:28;16.05;;;9.40;;
65998;SDS011;52766;56.008;37.440;2023-08-17T23:26:59;17.63;;;11.13;;
65998;SDS011;52766;56.008;37.440;2023-08-17T23:29:33;15.48;;;9.30;;
65998;SDS011;52766;56.008;37.440;2023-08-17T23:32:01;16.65;;;9.05;;
65998;SDS011;52766;56.008;37.440;2023-08-17T23:37:00;15.73;;;9.27;;
65998;SDS011;52766;56.008;37.440;2023-08-17T23:39:27;17.30;;;9.05;;
65998;SDS011;52766;56.008;37.440;2023-08-17T23:41:57;17.95;;;9.50;;
65998;SDS011;52766;56.008;37.440;2023-08-17T23:44:23;17.15;;;8.65;;
65998;SDS011;52766;56.008;37.440;2023-08-17T23:46:48;18.83;;;9.50;;
65998;SDS011;52766;56.008;37.440;2023-08-17T23:49:14;16.05;;;8.88;;
65998;SDS011;52766;56.008;37.440;2023-08-17T23:51:42;18.20;;;9.77;;
65998;SDS011;52766;56.008;37.440;2023-08-17T23:54:10;14.98;;;8.93;;
65998;SDS011;52766;56.008;37.440;2023-08-17T23:56:36;17.52;;;9.60;;
65998;SDS011;52766;56.008;37.440;2023-08-17T23:59:07;16.90;;;8.75;;
